createdAt,value
2017-11-04T00:00:05.980Z,38.65
2017-11-04T00:02:32.713Z,40.05
2017-11-04T00:04:58.743Z,39.30
2017-11-04T00:07:25.477Z,40.45
2017-11-04T00:09:52.206Z,42.88
2017-11-04T00:12:18.959Z,75.22
2017-11-04T00:14:45.698Z,44.97
2017-11-04T00:17:12.428Z,39.63
2017-11-04T00:19:38.425Z,40.60
2017-11-04T00:22:04.403Z,41.63
2017-11-04T00:24:30.397Z,39.10
2017-11-04T00:26:58.063Z,40.65
2017-11-04T00:29:24.782Z,38.95
2017-11-04T00:31:50.774Z,39.93
2017-11-04T00:34:17.048Z,38.75
2017-11-04T00:36:43.779Z,40.20
2017-11-04T00:39:09.763Z,39.65
2017-11-04T00:41:35.785Z,39.13
2017-11-04T00:44:01.799Z,39.67
2017-11-04T00:46:27.791Z,39.63
2017-11-04T00:48:54.513Z,40.03
2017-11-04T00:51:21.237Z,38.78
2017-11-04T00:53:47.230Z,38.80
2017-11-04T00:56:13.400Z,40.17
2017-11-04T00:58:40.129Z,39.10
2017-11-04T01:01:06.110Z,38.50
2017-11-04T01:03:32.389Z,37.13
2017-11-04T01:05:59.110Z,37.65
2017-11-04T01:08:25.110Z,39.88
2017-11-04T01:10:51.396Z,37.45
2017-11-04T01:13:17.376Z,39.47
2017-11-04T01:15:43.370Z,38.72
2017-11-04T01:18:09.358Z,39.50
2017-11-04T01:20:43.234Z,39.63
2017-11-04T01:23:09.222Z,39.30
2017-11-04T01:25:35.213Z,37.97
2017-11-04T01:28:01.202Z,37.20
2017-11-04T01:30:27.209Z,35.72
2017-11-04T01:32:53.197Z,37.50
2017-11-04T01:35:19.201Z,36.72
2017-11-04T01:37:45.222Z,37.80
2017-11-04T01:40:11.949Z,37.65
2017-11-04T01:42:38.705Z,36.53
2017-11-04T01:45:04.721Z,38.42
2017-11-04T01:47:31.830Z,37.00
2017-11-04T01:49:57.818Z,37.88
2017-11-04T01:52:23.829Z,37.53
2017-11-04T01:54:49.822Z,36.78
2017-11-04T01:57:16.550Z,37.50
2017-11-04T01:59:42.582Z,37.45
2017-11-04T02:02:09.321Z,38.35
2017-11-04T02:04:36.051Z,36.63
2017-11-04T02:07:02.786Z,37.08
2017-11-04T02:09:28.845Z,35.60
2017-11-04T02:11:54.842Z,35.90
2017-11-04T02:14:21.556Z,36.42
2017-11-04T02:16:47.540Z,37.30
2017-11-04T02:19:13.541Z,38.13
2017-11-04T02:21:39.606Z,35.60
2017-11-04T02:24:05.602Z,37.40
2017-11-04T02:26:31.626Z,37.67
2017-11-04T02:28:57.646Z,38.60
2017-11-04T02:31:23.634Z,36.90
2017-11-04T02:33:50.605Z,37.00
2017-11-04T02:36:16.579Z,37.33
2017-11-04T02:38:42.597Z,34.55
2017-11-04T02:41:08.861Z,37.58
2017-11-04T02:43:35.573Z,37.30
2017-11-04T02:46:01.826Z,38.88
2017-11-04T02:48:28.580Z,38.05
2017-11-04T02:50:54.588Z,37.00
2017-11-04T02:53:21.305Z,38.33
2017-11-04T02:55:47.307Z,39.67
2017-11-04T02:58:13.309Z,36.75
2017-11-04T03:00:39.313Z,38.42
2017-11-04T03:03:05.289Z,37.10
2017-11-04T03:05:31.281Z,38.17
2017-11-04T03:07:57.465Z,36.78
2017-11-04T03:10:24.197Z,38.00
2017-11-04T03:12:50.909Z,37.90
2017-11-04T03:15:16.928Z,36.90
2017-11-04T03:17:42.919Z,38.30
2017-11-04T03:20:08.913Z,38.13
2017-11-04T03:22:35.949Z,38.38
2017-11-04T03:25:02.689Z,38.58
2017-11-04T03:27:29.471Z,39.55
2017-11-04T03:29:55.502Z,40.10
2017-11-04T03:32:21.517Z,38.70
2017-11-04T03:34:47.501Z,38.05
2017-11-04T03:37:14.245Z,37.30
2017-11-04T03:39:41.058Z,39.78
2017-11-04T03:42:07.044Z,38.90
2017-11-04T03:44:33.099Z,37.58
2017-11-04T03:46:59.104Z,37.28
2017-11-04T03:49:25.094Z,37.33
2017-11-04T03:51:51.098Z,38.95
2017-11-04T03:54:17.829Z,38.25
2017-11-04T03:56:44.547Z,35.15
2017-11-04T03:59:11.305Z,36.83
2017-11-04T04:01:38.078Z,38.45
2017-11-04T04:04:04.069Z,37.33
2017-11-04T04:06:30.851Z,36.90
2017-11-04T04:08:56.833Z,37.37
2017-11-04T04:11:23.570Z,39.08
2017-11-04T04:13:50.310Z,37.83
2017-11-04T04:16:17.050Z,36.35
2017-11-04T04:18:43.812Z,37.35
2017-11-04T04:21:09.801Z,36.47
2017-11-04T04:23:35.794Z,37.30
2017-11-04T04:26:02.061Z,39.13
2017-11-04T04:28:28.797Z,36.43
2017-11-04T04:30:55.533Z,38.03
2017-11-04T04:33:23.333Z,38.08
2017-11-04T04:35:49.325Z,35.33
2017-11-04T04:38:16.053Z,36.10
2017-11-04T04:40:42.080Z,37.15
2017-11-04T04:43:08.825Z,36.13
2017-11-04T04:45:35.567Z,38.35
2017-11-04T04:48:02.315Z,36.43
2017-11-04T04:50:29.081Z,37.28
2017-11-04T04:52:55.101Z,37.97
2017-11-04T04:55:21.817Z,38.33
2017-11-04T04:57:47.805Z,36.83
2017-11-04T05:00:13.833Z,37.38
2017-11-04T05:02:40.549Z,38.45
2017-11-04T05:05:06.548Z,38.63
2017-11-04T05:07:32.726Z,37.28
2017-11-04T05:09:58.733Z,35.80
2017-11-04T05:12:24.713Z,38.65
2017-11-04T05:14:50.751Z,37.35
2017-11-04T05:17:16.743Z,36.15
2017-11-04T05:19:42.706Z,38.33
2017-11-04T05:22:08.711Z,38.40
2017-11-04T05:24:35.210Z,36.97
2017-11-04T05:27:01.976Z,38.75
2017-11-04T05:29:27.974Z,38.55
2017-11-04T05:31:54.755Z,36.17
2017-11-04T05:34:20.745Z,36.80
2017-11-04T05:36:46.845Z,38.27
2017-11-04T05:39:13.593Z,37.20
2017-11-04T05:41:40.314Z,36.43
2017-11-04T05:44:06.299Z,38.08
2017-11-04T05:46:32.257Z,38.27
2017-11-04T05:48:58.280Z,38.03
2017-11-04T05:51:24.761Z,39.53
2017-11-04T05:53:50.733Z,37.92
2017-11-04T05:56:16.862Z,38.38
2017-11-04T05:58:42.855Z,37.90
2017-11-04T06:01:08.850Z,38.20
2017-11-04T06:03:34.849Z,37.75
2017-11-04T06:06:01.581Z,38.85
2017-11-04T06:08:27.577Z,36.65
2017-11-04T06:10:53.569Z,37.10
2017-11-04T06:13:19.535Z,38.58
2017-11-04T06:15:46.257Z,38.47
2017-11-04T06:18:12.985Z,38.63
2017-11-04T06:20:39.012Z,38.45
2017-11-04T06:23:05.266Z,40.55
2017-11-04T06:25:31.982Z,38.55
2017-11-04T06:27:59.472Z,38.47
2017-11-04T06:30:26.202Z,39.25
2017-11-04T06:32:52.921Z,39.47
2017-11-04T06:35:18.927Z,39.88
2017-11-04T06:37:44.942Z,38.40
2017-11-04T06:40:10.927Z,39.33
2017-11-04T06:42:36.905Z,39.73
2017-11-04T06:45:02.899Z,39.63
2017-11-04T06:47:28.869Z,39.85
2017-11-04T06:49:55.618Z,40.12
2017-11-04T06:52:22.347Z,38.70
2017-11-04T06:54:49.066Z,40.25
2017-11-04T06:57:15.049Z,40.65
2017-11-04T06:59:41.061Z,40.47
2017-11-04T07:02:07.042Z,41.40
2017-11-04T07:04:33.793Z,41.97
2017-11-04T07:07:00.526Z,40.70
2017-11-04T07:09:26.526Z,39.80
2017-11-04T07:11:52.513Z,40.63
2017-11-04T07:14:18.490Z,40.40
2017-11-04T07:16:44.472Z,41.20
2017-11-04T07:19:10.728Z,37.78
2017-11-04T07:21:36.710Z,40.00
2017-11-04T07:24:02.758Z,39.95
2017-11-04T07:26:29.766Z,38.95
2017-11-04T07:28:55.767Z,40.55
2017-11-04T07:31:22.506Z,40.50
2017-11-04T07:33:49.269Z,38.05
2017-11-04T07:36:15.255Z,39.43
2017-11-04T07:38:42.020Z,40.25
2017-11-04T07:41:08.047Z,41.37
2017-11-04T07:43:34.030Z,40.10
2017-11-04T07:46:00.058Z,39.38
2017-11-04T07:48:26.078Z,38.67
2017-11-04T07:50:52.076Z,38.45
2017-11-04T07:53:18.059Z,38.93
2017-11-04T07:55:44.081Z,38.25
2017-11-04T07:58:10.069Z,37.92
2017-11-04T08:00:36.053Z,38.60
2017-11-04T08:03:02.974Z,36.95
2017-11-04T08:05:29.838Z,40.65
2017-11-04T08:07:55.808Z,40.47
2017-11-04T08:10:22.673Z,40.58
2017-11-04T08:12:48.669Z,39.28
2017-11-04T08:15:15.389Z,39.25
2017-11-04T08:17:41.646Z,39.70
2017-11-04T08:20:08.367Z,39.15
2017-11-04T08:22:34.390Z,39.60
2017-11-04T08:25:01.126Z,39.97
2017-11-04T08:27:27.102Z,38.95
2017-11-04T08:29:53.122Z,39.33
2017-11-04T08:32:19.117Z,39.08
2017-11-04T08:34:45.102Z,37.78
2017-11-04T08:37:11.102Z,37.88
2017-11-04T08:39:37.092Z,37.73
2017-11-04T08:42:03.085Z,40.50
2017-11-04T08:44:29.868Z,40.08
2017-11-04T08:46:55.865Z,38.55
2017-11-04T08:49:22.602Z,38.53
2017-11-04T08:51:50.050Z,39.28
2017-11-04T08:54:16.805Z,40.17
2017-11-04T08:56:42.815Z,37.33
2017-11-04T08:59:09.573Z,35.97
2017-11-04T09:01:35.570Z,37.95
2017-11-04T09:04:02.298Z,36.88
2017-11-04T09:06:28.301Z,38.22
2017-11-04T09:08:54.293Z,37.55
2017-11-04T09:11:20.479Z,35.90
2017-11-04T09:13:47.202Z,38.65
2017-11-04T09:16:13.190Z,38.58
2017-11-04T09:18:39.203Z,39.22
2017-11-04T09:21:05.201Z,38.40
2017-11-04T09:23:31.185Z,37.90
2017-11-04T09:25:57.366Z,38.20
2017-11-04T09:28:23.422Z,36.40
2017-11-04T09:30:52.362Z,36.78
2017-11-04T09:33:18.366Z,38.25
2017-11-04T09:35:45.100Z,38.90
2017-11-04T09:38:11.893Z,37.90
2017-11-04T09:40:37.895Z,37.40
2017-11-04T09:43:03.926Z,37.92
2017-11-04T09:45:29.941Z,37.85
2017-11-04T09:47:55.950Z,35.55
2017-11-04T09:50:22.799Z,36.25
2017-11-04T09:52:48.781Z,35.28
2017-11-04T09:55:14.814Z,35.30
2017-11-04T09:57:40.962Z,34.17
2017-11-04T10:00:07.690Z,36.83
2017-11-04T10:02:34.427Z,35.53
2017-11-04T10:05:01.209Z,36.78
2017-11-04T10:07:27.210Z,36.50
2017-11-04T10:09:53.208Z,34.78
2017-11-04T10:12:19.980Z,35.60
2017-11-04T10:14:46.015Z,35.30
2017-11-04T10:17:12.013Z,35.78
2017-11-04T10:19:38.045Z,33.75
2017-11-04T10:22:04.053Z,34.60
2017-11-04T10:24:30.778Z,33.50
2017-11-04T10:26:57.549Z,34.47
2017-11-04T10:29:23.682Z,32.80
2017-11-04T10:31:49.721Z,34.25
2017-11-04T10:34:15.731Z,33.45
2017-11-04T10:36:41.797Z,33.60
2017-11-04T10:39:07.778Z,34.05
2017-11-04T10:41:33.776Z,33.67
2017-11-04T10:43:59.981Z,32.10
2017-11-04T10:46:26.702Z,33.25
2017-11-04T10:48:52.692Z,32.05
2017-11-04T10:51:18.669Z,31.37
2017-11-04T10:53:44.641Z,32.63
2017-11-04T10:56:10.642Z,32.20
2017-11-04T10:58:36.629Z,31.42
2017-11-04T11:01:03.358Z,31.20
2017-11-04T11:03:29.358Z,32.30
2017-11-04T11:05:55.360Z,32.88
2017-11-04T11:08:21.359Z,32.38
2017-11-04T11:10:47.406Z,32.40
2017-11-04T11:13:13.394Z,30.43
2017-11-04T11:15:39.386Z,31.58
2017-11-04T11:18:05.389Z,28.87
2017-11-04T11:20:31.380Z,29.67
2017-11-04T11:22:57.378Z,29.25
2017-11-04T11:25:24.413Z,29.48
2017-11-04T11:27:51.130Z,29.52
2017-11-04T11:30:17.118Z,29.65
2017-11-04T11:32:43.213Z,27.30
2017-11-04T11:35:09.963Z,28.42
2017-11-04T11:37:35.986Z,27.40
2017-11-04T11:40:01.969Z,29.20
2017-11-04T11:42:27.959Z,28.40
2017-11-04T11:44:53.935Z,27.95
2017-11-04T11:47:20.666Z,27.58
2017-11-04T11:49:47.381Z,28.70
2017-11-04T11:52:13.366Z,28.87
2017-11-04T11:54:39.374Z,28.70
2017-11-04T11:57:05.343Z,29.37
2017-11-04T11:59:31.318Z,28.52
2017-11-04T12:01:57.332Z,30.05
2017-11-04T12:04:23.318Z,28.87
2017-11-04T12:06:49.290Z,27.27
2017-11-04T12:09:15.577Z,28.65
2017-11-04T12:11:41.566Z,27.77
2017-11-04T12:14:07.583Z,27.90
2017-11-04T12:16:33.597Z,29.08
2017-11-04T12:18:59.577Z,27.70
2017-11-04T12:21:26.306Z,28.25
2017-11-04T12:23:53.042Z,27.70
2017-11-04T12:26:19.018Z,26.92
2017-11-04T12:28:45.034Z,27.87
2017-11-04T12:31:11.630Z,30.58
2017-11-04T12:33:38.355Z,30.10
2017-11-04T12:36:04.365Z,30.45
2017-11-04T12:38:30.394Z,32.17
2017-11-04T12:40:56.366Z,31.40
2017-11-04T12:43:22.365Z,28.80
2017-11-04T12:45:49.098Z,31.63
2017-11-04T12:48:15.822Z,30.90
2017-11-04T12:50:42.170Z,32.13
2017-11-04T12:53:09.333Z,32.13
2017-11-04T12:55:35.305Z,41.80
2017-11-04T12:58:02.473Z,47.25
2017-11-04T13:00:28.457Z,33.78
2017-11-04T13:02:54.447Z,32.70
2017-11-04T13:05:20.673Z,31.83
2017-11-04T13:07:46.653Z,30.50
2017-11-04T13:10:12.657Z,32.22
2017-11-04T13:12:38.650Z,30.73
2017-11-04T13:15:04.636Z,30.85
2017-11-04T13:17:31.382Z,31.73
2017-11-04T13:19:58.862Z,30.90
2017-11-04T13:22:24.835Z,30.58
2017-11-04T13:24:50.833Z,31.00
2017-11-04T13:27:16.875Z,34.60
2017-11-04T13:29:42.849Z,32.22
2017-11-04T13:32:08.845Z,32.03
2017-11-04T13:34:35.570Z,32.83
2017-11-04T13:37:02.378Z,34.03
2017-11-04T13:39:28.550Z,33.33
2017-11-04T13:42:02.292Z,33.95
2017-11-04T13:44:28.276Z,32.20
2017-11-04T13:46:55.026Z,32.45
2017-11-04T13:49:21.742Z,33.60
2017-11-04T13:51:47.710Z,34.22
2017-11-04T13:54:13.706Z,34.28
2017-11-04T13:56:40.422Z,33.15
2017-11-04T13:59:06.393Z,32.30
2017-11-04T14:01:32.385Z,33.83
2017-11-04T14:03:59.103Z,34.00
2017-11-04T14:06:25.100Z,33.85
2017-11-04T14:08:51.995Z,33.47
2017-11-04T14:11:18.727Z,33.55
2017-11-04T14:13:44.694Z,33.47
2017-11-04T14:16:10.795Z,33.08
2017-11-04T14:18:36.757Z,33.95
2017-11-04T14:21:02.765Z,33.17
2017-11-04T14:23:30.369Z,36.92
2017-11-04T14:25:57.110Z,34.05
2017-11-04T14:28:23.834Z,36.28
2017-11-04T14:30:50.897Z,35.70
2017-11-04T14:33:17.618Z,62.60
2017-11-04T14:35:43.621Z,117.78
2017-11-04T14:38:09.630Z,50.00
2017-11-04T14:40:35.610Z,35.67
2017-11-04T14:43:02.335Z,35.67
2017-11-04T14:45:29.090Z,35.00
2017-11-04T14:47:55.082Z,35.27
2017-11-04T14:50:21.074Z,35.85
2017-11-04T14:52:47.087Z,33.73
2017-11-04T14:55:13.069Z,33.10
2017-11-04T14:57:40.113Z,33.60
2017-11-04T15:00:06.861Z,33.92
2017-11-04T15:02:33.596Z,32.60
2017-11-04T15:05:00.355Z,31.98
2017-11-04T15:07:26.354Z,32.60
2017-11-04T15:09:53.093Z,32.53
2017-11-04T15:12:19.836Z,32.67
2017-11-04T15:14:46.627Z,32.40
2017-11-04T15:17:12.713Z,32.50
2017-11-04T15:19:38.698Z,31.58
2017-11-04T15:22:04.678Z,30.65
2017-11-04T15:24:30.674Z,31.35
2017-11-04T15:26:56.699Z,32.33
2017-11-04T15:29:23.427Z,32.23
2017-11-04T15:31:50.163Z,31.85
2017-11-04T15:34:17.082Z,33.58
2017-11-04T15:36:43.064Z,33.17
2017-11-04T15:39:09.050Z,33.10
2017-11-04T15:41:36.262Z,32.00
2017-11-04T15:44:03.178Z,31.87
2017-11-04T15:46:30.868Z,31.92
2017-11-04T15:48:57.530Z,31.12
2017-11-04T15:51:25.413Z,31.50
2017-11-04T15:53:52.142Z,31.90
2017-11-04T15:56:18.915Z,31.73
2017-11-04T15:58:44.928Z,33.35
2017-11-04T16:01:11.626Z,34.17
2017-11-04T16:03:37.610Z,35.17
2017-11-04T16:06:03.588Z,34.85
2017-11-04T16:08:31.913Z,34.05
2017-11-04T16:10:58.347Z,34.35
2017-11-04T16:13:24.514Z,34.95
2017-11-04T16:15:52.890Z,34.47
2017-11-04T16:18:20.474Z,34.45
2017-11-04T16:20:47.481Z,32.38
2017-11-04T16:23:13.730Z,33.83
2017-11-04T16:25:40.651Z,33.80
2017-11-04T16:28:06.638Z,33.65
2017-11-04T16:30:32.670Z,32.53
2017-11-04T16:32:58.642Z,34.05
2017-11-04T16:35:25.386Z,34.50
2017-11-04T16:37:52.112Z,33.43
2017-11-04T16:40:18.452Z,34.65
2017-11-04T16:42:45.416Z,34.30
2017-11-04T16:45:11.423Z,36.22
2017-11-04T16:47:38.146Z,35.72
2017-11-04T16:50:05.076Z,34.10
2017-11-04T16:52:31.841Z,34.72
2017-11-04T16:54:58.598Z,36.17
2017-11-04T16:57:25.673Z,42.47
2017-11-04T16:59:51.656Z,55.53
2017-11-04T17:02:18.386Z,47.55
2017-11-04T17:04:45.226Z,41.92
2017-11-04T17:07:12.185Z,39.85
2017-11-04T17:09:38.915Z,43.00
2017-11-04T17:12:05.679Z,36.85
2017-11-04T17:14:32.346Z,35.50
2017-11-04T17:16:58.745Z,36.60
2017-11-04T17:19:24.731Z,35.67
2017-11-04T17:21:51.451Z,37.28
2017-11-04T17:24:17.706Z,35.13
2017-11-04T17:26:44.448Z,37.45
2017-11-04T17:29:11.203Z,35.25
2017-11-04T17:31:37.954Z,37.20
2017-11-04T17:34:03.943Z,36.08
2017-11-04T17:36:29.944Z,35.33
2017-11-04T17:38:55.938Z,35.10
2017-11-04T17:41:21.929Z,35.35
2017-11-04T17:43:48.969Z,34.70
2017-11-04T17:46:15.683Z,33.50
2017-11-04T17:48:41.658Z,35.60
2017-11-04T17:51:07.831Z,35.67
2017-11-04T17:53:33.809Z,34.33
2017-11-04T17:55:59.778Z,37.83
2017-11-04T17:58:25.774Z,33.93
2017-11-04T18:00:51.759Z,36.60
2017-11-04T18:03:17.759Z,35.00
2017-11-04T18:05:44.519Z,34.28
2017-11-04T18:08:10.983Z,34.27
2017-11-04T18:10:37.711Z,34.87
2017-11-04T18:13:03.734Z,35.10
2017-11-04T18:15:29.722Z,35.78
2017-11-04T18:17:56.450Z,35.40
2017-11-04T18:20:23.222Z,36.00
2017-11-04T18:22:49.198Z,35.42
2017-11-04T18:25:15.182Z,35.45
2017-11-04T18:27:41.467Z,35.88
2017-11-04T18:30:07.458Z,37.50
2017-11-04T18:32:33.450Z,36.75
2017-11-04T18:34:59.507Z,35.50
2017-11-04T18:37:25.508Z,35.70
2017-11-04T18:39:51.501Z,34.85
2017-11-04T18:42:17.708Z,34.13
2017-11-04T18:44:44.465Z,33.93
2017-11-04T18:47:10.462Z,34.90
2017-11-04T18:49:37.216Z,35.47
2017-11-04T18:52:03.206Z,34.40
2017-11-04T18:54:29.186Z,34.88
2017-11-04T18:56:55.171Z,33.60
2017-11-04T18:59:21.914Z,33.50
2017-11-04T19:01:47.922Z,35.65
2017-11-04T19:04:14.693Z,35.13
2017-11-04T19:06:40.675Z,36.20
2017-11-04T19:09:06.670Z,35.50
2017-11-04T19:11:32.946Z,33.67
2017-11-04T19:13:59.670Z,34.25
2017-11-04T19:16:25.661Z,34.67
2017-11-04T19:18:51.681Z,32.58
2017-11-04T19:21:18.409Z,32.60
2017-11-04T19:23:44.427Z,33.60
2017-11-04T19:26:10.472Z,33.42
2017-11-04T19:28:36.470Z,33.10
2017-11-04T19:31:02.464Z,34.10
2017-11-04T19:33:28.673Z,32.95
2017-11-04T19:35:54.676Z,33.60
2017-11-04T19:38:20.671Z,33.00
2017-11-04T19:40:46.667Z,33.22
2017-11-04T19:43:12.678Z,32.97
2017-11-04T19:45:39.432Z,31.45
2017-11-04T19:48:05.406Z,32.95
2017-11-04T19:50:31.464Z,33.70
2017-11-04T19:52:58.186Z,32.90
2017-11-04T19:55:24.925Z,33.58
2017-11-04T19:57:51.770Z,33.80
2017-11-04T20:00:18.517Z,33.97
2017-11-04T20:02:45.293Z,32.28
2017-11-04T20:05:11.308Z,33.63
2017-11-04T20:07:37.318Z,33.90
2017-11-04T20:10:03.321Z,32.53
2017-11-04T20:12:30.978Z,33.45
2017-11-04T20:14:57.718Z,31.40
2017-11-04T20:17:24.459Z,33.47
2017-11-04T20:19:51.501Z,32.53
2017-11-04T20:22:18.229Z,32.40
2017-11-04T20:24:44.208Z,33.55
2017-11-04T20:27:10.209Z,32.08
2017-11-04T20:29:36.238Z,31.55
2017-11-04T20:32:02.240Z,31.70
2017-11-04T20:34:28.961Z,32.17
2017-11-04T20:36:55.698Z,32.10
2017-11-04T20:39:22.453Z,31.58
2017-11-04T20:43:48.710Z,32.10
2017-11-04T20:46:14.693Z,31.83
2017-11-04T20:48:40.689Z,31.10
2017-11-04T20:51:06.707Z,30.27
2017-11-04T20:53:32.753Z,30.52
2017-11-04T20:55:58.761Z,32.10
2017-11-04T20:58:24.747Z,30.77
2017-11-04T21:00:50.989Z,29.63
2017-11-04T21:03:17.182Z,29.80
2017-11-04T21:05:43.909Z,29.40
2017-11-04T21:08:10.649Z,30.00
2017-11-04T21:10:37.414Z,29.50
2017-11-04T21:13:03.440Z,29.33
2017-11-04T21:15:30.179Z,30.50
2017-11-04T21:17:57.704Z,31.58
2017-11-04T21:20:24.216Z,29.53
2017-11-04T21:22:50.413Z,31.70
2017-11-04T21:25:16.402Z,29.83
2017-11-04T21:27:42.624Z,30.55
2017-11-04T21:30:09.388Z,31.15
2017-11-04T21:32:35.381Z,30.73
2017-11-04T21:35:02.971Z,28.67
2017-11-04T21:37:30.022Z,27.83
2017-11-04T21:39:56.119Z,26.30
2017-11-04T21:42:23.175Z,25.92
2017-11-04T21:44:49.147Z,26.33
2017-11-04T21:47:15.133Z,24.48
2017-11-04T21:49:41.196Z,25.62
2017-11-04T21:52:07.218Z,23.02
2017-11-04T21:54:33.210Z,22.75
2017-11-04T21:56:59.506Z,22.77
2017-11-04T21:59:26.246Z,23.38
2017-11-04T22:01:53.014Z,22.90
2017-11-04T22:04:19.378Z,21.35
2017-11-04T22:06:45.352Z,23.17
2017-11-04T22:09:11.358Z,20.70
2017-11-04T22:11:38.077Z,22.20
2017-11-04T22:14:04.074Z,20.27
2017-11-04T22:16:30.102Z,20.95
2017-11-04T22:18:56.095Z,19.83
2017-11-04T22:21:22.100Z,21.45
2017-11-04T22:23:48.081Z,20.67
2017-11-04T22:26:14.365Z,20.20
2017-11-04T22:28:40.902Z,21.12
2017-11-04T22:31:07.522Z,20.90
2017-11-04T22:33:33.721Z,20.58
2017-11-04T22:36:00.500Z,19.77
2017-11-04T22:38:26.944Z,19.98
2017-11-04T22:40:52.934Z,19.45
2017-11-04T22:43:18.941Z,20.62
2017-11-04T22:45:45.686Z,20.15
2017-11-04T22:48:12.432Z,20.37
2017-11-04T22:50:39.434Z,19.75
2017-11-04T22:53:05.956Z,19.52
2017-11-04T22:55:31.933Z,18.48
2017-11-04T22:57:58.695Z,19.33
2017-11-04T23:00:24.719Z,18.10
2017-11-04T23:02:50.701Z,18.77
2017-11-04T23:05:17.459Z,18.23
2017-11-04T23:07:43.486Z,17.92
2017-11-04T23:10:09.493Z,19.62
2017-11-04T23:12:36.230Z,18.85
2017-11-04T23:15:03.033Z,19.12
2017-11-04T23:17:28.989Z,18.77
2017-11-04T23:19:55.754Z,19.12
2017-11-04T23:22:21.745Z,18.85
2017-11-04T23:24:47.734Z,18.42
2017-11-04T23:27:13.754Z,18.87
2017-11-04T23:29:39.756Z,18.80
2017-11-04T23:32:06.975Z,18.33
2017-11-04T23:34:33.082Z,19.37
2017-11-04T23:36:59.270Z,19.17
2017-11-04T23:39:25.278Z,19.90
2017-11-04T23:41:54.711Z,18.45
2017-11-04T23:44:20.714Z,18.80
2017-11-04T23:46:46.712Z,20.60
2017-11-04T23:49:13.636Z,20.12
2017-11-04T23:51:40.468Z,18.70
2017-11-04T23:54:07.198Z,19.77
2017-11-04T23:56:33.958Z,19.60
2017-11-04T23:59:00.682Z,19.45
